sensor_id;sensor_type;location;lat;lon;timestamp;P1;durP1;ratioP1;P2;durP2;ratioP2
2760;SDS011;15420;48.636;9.798;2023-02-01T00:01:04;2.13;;;1.97;;
2760;SDS011;15420;48.636;9.798;2023-02-01T00:03:32;2.00;;;1.87;;
2760;SDS011;15420;48.636;9.798;2023-02-01T00:05:58;2.30;;;2.00;;
2760;SDS011;15420;48.636;9.798;2023-02-01T00:08:25;2.07;;;1.60;;
2760;SDS011;15420;48.636;9.798;2023-02-01T00:13:47;1.47;;;1.37;;
2760;SDS011;15420;48.636;9.798;2023-02-01T00:18:43;1.70;;;1.60;;
2760;SDS011;15420;48.636;9.798;2023-02-01T00:21:15;1.60;;;1.50;;
2760;SDS011;15420;48.636;9.798;2023-02-01T00:23:43;1.43;;;1.33;;
2760;SDS011;15420;48.636;9.798;2023-02-01T00:26:14;1.30;;;1.20;;
2760;SDS011;15420;48.636;9.798;2023-02-01T00:28:43;0.90;;;0.90;;
2760;SDS011;15420;48.636;9.798;2023-02-01T00:31:12;1.53;;;1.43;;
2760;SDS011;15420;48.636;9.798;2023-02-01T00:33:41;1.00;;;1.00;;
2760;SDS011;15420;48.636;9.798;2023-02-01T00:36:09;1.90;;;1.70;;
2760;SDS011;15420;48.636;9.798;2023-02-01T00:38:36;0.93;;;0.90;;
2760;SDS011;15420;48.636;9.798;2023-02-01T00:41:26;1.63;;;1.10;;
2760;SDS011;15420;48.636;9.798;2023-02-01T00:43:52;1.40;;;1.10;;
2760;SDS011;15420;48.636;9.798;2023-02-01T00:46:18;1.00;;;1.00;;
2760;SDS011;15420;48.636;9.798;2023-02-01T00:48:47;1.30;;;1.20;;
2760;SDS011;15420;48.636;9.798;2023-02-01T00:51:18;1.07;;;1.07;;
2760;SDS011;15420;48.636;9.798;2023-02-01T00:53:46;1.20;;;1.10;;
2760;SDS011;15420;48.636;9.798;2023-02-01T00:56:14;1.13;;;1.07;;
2760;SDS011;15420;48.636;9.798;2023-02-01T00:58:41;1.10;;;1.00;;
2760;SDS011;15420;48.636;9.798;2023-02-01T01:01:14;1.00;;;1.00;;
2760;SDS011;15420;48.636;9.798;2023-02-01T01:03:47;0.90;;;0.90;;
2760;SDS011;15420;48.636;9.798;2023-02-01T01:06:29;1.00;;;0.90;;
2760;SDS011;15420;48.636;9.798;2023-02-01T01:08:59;0.77;;;0.77;;
2760;SDS011;15420;48.636;9.798;2023-02-01T01:11:29;1.00;;;1.00;;
2760;SDS011;15420;48.636;9.798;2023-02-01T01:13:57;0.70;;;0.70;;
2760;SDS011;15420;48.636;9.798;2023-02-01T01:16:26;0.77;;;0.77;;
2760;SDS011;15420;48.636;9.798;2023-02-01T01:18:53;1.10;;;0.93;;
2760;SDS011;15420;48.636;9.798;2023-02-01T01:21:19;0.80;;;0.80;;
2760;SDS011;15420;48.636;9.798;2023-02-01T01:23:48;4.30;;;1.10;;
2760;SDS011;15420;48.636;9.798;2023-02-01T01:26:15;1.00;;;1.00;;
2760;SDS011;15420;48.636;9.798;2023-02-01T01:28:47;1.60;;;1.00;;
2760;SDS011;15420;48.636;9.798;2023-02-01T01:31:14;0.80;;;0.80;;
2760;SDS011;15420;48.636;9.798;2023-02-01T01:33:48;1.27;;;1.17;;
2760;SDS011;15420;48.636;9.798;2023-02-01T01:36:18;1.10;;;1.00;;
2760;SDS011;15420;48.636;9.798;2023-02-01T01:38:45;0.87;;;0.83;;
2760;SDS011;15420;48.636;9.798;2023-02-01T01:41:21;1.00;;;1.00;;
2760;SDS011;15420;48.636;9.798;2023-02-01T01:51:42;1.00;;;0.93;;
2760;SDS011;15420;48.636;9.798;2023-02-01T01:54:13;1.00;;;1.00;;
2760;SDS011;15420;48.636;9.798;2023-02-01T01:56:46;1.13;;;1.03;;
2760;SDS011;15420;48.636;9.798;2023-02-01T01:59:22;0.83;;;0.83;;
2760;SDS011;15420;48.636;9.798;2023-02-01T02:01:54;1.33;;;0.90;;
2760;SDS011;15420;48.636;9.798;2023-02-01T02:04:23;1.00;;;0.97;;
2760;SDS011;15420;48.636;9.798;2023-02-01T02:06:57;0.93;;;0.93;;
2760;SDS011;15420;48.636;9.798;2023-02-01T02:09:32;1.60;;;1.10;;
2760;SDS011;15420;48.636;9.798;2023-02-01T02:11:59;0.73;;;0.73;;
2760;SDS011;15420;48.636;9.798;2023-02-01T02:14:25;1.03;;;0.90;;
2760;SDS011;15420;48.636;9.798;2023-02-01T02:20:03;1.27;;;1.17;;
2760;SDS011;15420;48.636;9.798;2023-02-01T02:31:25;0.80;;;0.80;;
2760;SDS011;15420;48.636;9.798;2023-02-01T02:40:04;0.90;;;0.90;;
2760;SDS011;15420;48.636;9.798;2023-02-01T02:43:08;1.10;;;0.97;;
2760;SDS011;15420;48.636;9.798;2023-02-01T02:46:09;2.00;;;1.13;;
2760;SDS011;15420;48.636;9.798;2023-02-01T02:49:05;1.03;;;1.00;;
2760;SDS011;15420;48.636;9.798;2023-02-01T02:51:43;1.20;;;0.90;;
2760;SDS011;15420;48.636;9.798;2023-02-01T02:54:45;0.97;;;0.83;;
2760;SDS011;15420;48.636;9.798;2023-02-01T02:57:27;0.93;;;0.93;;
2760;SDS011;15420;48.636;9.798;2023-02-01T03:00:18;0.90;;;0.90;;
2760;SDS011;15420;48.636;9.798;2023-02-01T03:03:12;1.17;;;1.07;;
2760;SDS011;15420;48.636;9.798;2023-02-01T03:05:57;0.80;;;0.80;;
2760;SDS011;15420;48.636;9.798;2023-02-01T03:08:25;1.10;;;1.00;;
2760;SDS011;15420;48.636;9.798;2023-02-01T03:11:14;1.70;;;0.97;;
2760;SDS011;15420;48.636;9.798;2023-02-01T03:18:43;0.80;;;0.80;;
2760;SDS011;15420;48.636;9.798;2023-02-01T03:21:35;2.17;;;1.00;;
2760;SDS011;15420;48.636;9.798;2023-02-01T03:24:07;2.77;;;1.10;;
2760;SDS011;15420;48.636;9.798;2023-02-01T03:26:38;1.47;;;1.20;;
2760;SDS011;15420;48.636;9.798;2023-02-01T03:29:14;1.00;;;1.00;;
2760;SDS011;15420;48.636;9.798;2023-02-01T03:31:48;1.73;;;1.00;;
2760;SDS011;15420;48.636;9.798;2023-02-01T03:34:15;1.20;;;1.13;;
2760;SDS011;15420;48.636;9.798;2023-02-01T03:37:29;1.30;;;1.20;;
2760;SDS011;15420;48.636;9.798;2023-02-01T03:39:40;1.30;;;1.20;;
2760;SDS011;15420;48.636;9.798;2023-02-01T03:42:19;2.70;;;1.33;;
2760;SDS011;15420;48.636;9.798;2023-02-01T03:47:42;1.83;;;1.40;;
2760;SDS011;15420;48.636;9.798;2023-02-01T03:50:21;1.20;;;1.20;;
2760;SDS011;15420;48.636;9.798;2023-02-01T03:52:53;1.37;;;1.27;;
2760;SDS011;15420;48.636;9.798;2023-02-01T03:55:33;3.63;;;1.40;;
2760;SDS011;15420;48.636;9.798;2023-02-01T04:00:40;2.10;;;1.20;;
2760;SDS011;15420;48.636;9.798;2023-02-01T04:03:09;1.20;;;1.10;;
2760;SDS011;15420;48.636;9.798;2023-02-01T04:05:35;1.43;;;1.30;;
2760;SDS011;15420;48.636;9.798;2023-02-01T04:08:02;1.03;;;0.97;;
2760;SDS011;15420;48.636;9.798;2023-02-01T04:10:30;1.20;;;1.10;;
2760;SDS011;15420;48.636;9.798;2023-02-01T04:12:56;1.60;;;1.40;;
2760;SDS011;15420;48.636;9.798;2023-02-01T04:15:24;1.50;;;1.40;;
2760;SDS011;15420;48.636;9.798;2023-02-01T04:17:55;3.20;;;2.13;;
2760;SDS011;15420;48.636;9.798;2023-02-01T04:20:23;2.60;;;1.80;;
2760;SDS011;15420;48.636;9.798;2023-02-01T04:22:52;2.73;;;1.97;;
2760;SDS011;15420;48.636;9.798;2023-02-01T04:25:18;1.93;;;1.67;;
2760;SDS011;15420;48.636;9.798;2023-02-01T04:27:49;2.43;;;1.30;;
2760;SDS011;15420;48.636;9.798;2023-02-01T04:30:15;1.40;;;1.30;;
2760;SDS011;15420;48.636;9.798;2023-02-01T04:32:42;1.30;;;1.30;;
2760;SDS011;15420;48.636;9.798;2023-02-01T04:35:10;1.30;;;1.30;;
2760;SDS011;15420;48.636;9.798;2023-02-01T04:37:36;1.37;;;1.27;;
2760;SDS011;15420;48.636;9.798;2023-02-01T04:40:02;1.10;;;1.10;;
2760;SDS011;15420;48.636;9.798;2023-02-01T04:42:29;1.40;;;1.30;;
2760;SDS011;15420;48.636;9.798;2023-02-01T04:44:55;1.27;;;1.17;;
2760;SDS011;15420;48.636;9.798;2023-02-01T04:47:21;1.40;;;1.30;;
2760;SDS011;15420;48.636;9.798;2023-02-01T04:49:47;2.13;;;1.60;;
2760;SDS011;15420;48.636;9.798;2023-02-01T04:52:13;1.73;;;1.63;;
2760;SDS011;15420;48.636;9.798;2023-02-01T04:54:42;1.97;;;1.77;;
2760;SDS011;15420;48.636;9.798;2023-02-01T04:57:08;1.37;;;1.27;;
2760;SDS011;15420;48.636;9.798;2023-02-01T04:59:34;1.90;;;1.70;;
2760;SDS011;15420;48.636;9.798;2023-02-01T05:02:00;1.30;;;1.20;;
2760;SDS011;15420;48.636;9.798;2023-02-01T05:04:26;1.40;;;1.30;;
2760;SDS011;15420;48.636;9.798;2023-02-01T05:06:53;1.37;;;1.27;;
2760;SDS011;15420;48.636;9.798;2023-02-01T05:09:21;1.60;;;1.47;;
2760;SDS011;15420;48.636;9.798;2023-02-01T05:11:47;1.50;;;1.40;;
2760;SDS011;15420;48.636;9.798;2023-02-01T05:14:35;1.80;;;1.70;;
2760;SDS011;15420;48.636;9.798;2023-02-01T05:17:01;1.80;;;1.40;;
2760;SDS011;15420;48.636;9.798;2023-02-01T05:19:29;1.50;;;1.40;;
2760;SDS011;15420;48.636;9.798;2023-02-01T05:22:02;1.07;;;1.07;;
2760;SDS011;15420;48.636;9.798;2023-02-01T05:24:31;1.10;;;1.10;;
2760;SDS011;15420;48.636;9.798;2023-02-01T05:26:59;1.50;;;1.40;;
2760;SDS011;15420;48.636;9.798;2023-02-01T05:29:25;1.30;;;1.30;;
2760;SDS011;15420;48.636;9.798;2023-02-01T05:31:51;1.80;;;1.53;;
2760;SDS011;15420;48.636;9.798;2023-02-01T05:34:17;1.50;;;1.40;;
2760;SDS011;15420;48.636;9.798;2023-02-01T05:36:46;1.97;;;1.87;;
2760;SDS011;15420;48.636;9.798;2023-02-01T05:39:12;3.10;;;1.17;;
2760;SDS011;15420;48.636;9.798;2023-02-01T05:41:38;1.57;;;1.47;;
2760;SDS011;15420;48.636;9.798;2023-02-01T05:44:06;1.90;;;1.10;;
2760;SDS011;15420;48.636;9.798;2023-02-01T05:46:33;1.40;;;1.30;;
2760;SDS011;15420;48.636;9.798;2023-02-01T05:49:00;1.23;;;1.23;;
2760;SDS011;15420;48.636;9.798;2023-02-01T05:51:26;1.43;;;1.33;;
2760;SDS011;15420;48.636;9.798;2023-02-01T05:53:52;1.47;;;1.37;;
2760;SDS011;15420;48.636;9.798;2023-02-01T05:56:18;2.70;;;1.40;;
2760;SDS011;15420;48.636;9.798;2023-02-01T05:58:44;1.70;;;1.60;;
2760;SDS011;15420;48.636;9.798;2023-02-01T06:01:11;1.30;;;1.20;;
2760;SDS011;15420;48.636;9.798;2023-02-01T06:03:39;2.70;;;1.47;;
2760;SDS011;15420;48.636;9.798;2023-02-01T06:06:05;1.63;;;1.53;;
2760;SDS011;15420;48.636;9.798;2023-02-01T06:08:31;1.50;;;1.40;;
2760;SDS011;15420;48.636;9.798;2023-02-01T06:10:58;2.03;;;1.83;;
2760;SDS011;15420;48.636;9.798;2023-02-01T06:13:31;2.83;;;1.47;;
2760;SDS011;15420;48.636;9.798;2023-02-01T06:15:58;2.13;;;1.60;;
2760;SDS011;15420;48.636;9.798;2023-02-01T06:18:26;2.10;;;1.20;;
2760;SDS011;15420;48.636;9.798;2023-02-01T06:20:56;1.87;;;1.67;;
2760;SDS011;15420;48.636;9.798;2023-02-01T06:23:25;1.73;;;1.63;;
2760;SDS011;15420;48.636;9.798;2023-02-01T06:25:52;21.50;;;8.73;;
2760;SDS011;15420;48.636;9.798;2023-02-01T06:28:29;7.10;;;5.50;;
2760;SDS011;15420;48.636;9.798;2023-02-01T06:30:57;3.00;;;2.10;;
2760;SDS011;15420;48.636;9.798;2023-02-01T06:33:25;2.30;;;2.07;;
2760;SDS011;15420;48.636;9.798;2023-02-01T06:35:57;1.50;;;1.40;;
2760;SDS011;15420;48.636;9.798;2023-02-01T06:38:25;2.90;;;1.83;;
2760;SDS011;15420;48.636;9.798;2023-02-01T06:40:52;2.60;;;1.40;;
2760;SDS011;15420;48.636;9.798;2023-02-01T06:43:19;2.03;;;1.80;;
2760;SDS011;15420;48.636;9.798;2023-02-01T06:45:46;1.80;;;1.70;;
2760;SDS011;15420;48.636;9.798;2023-02-01T06:48:12;2.13;;;1.43;;
2760;SDS011;15420;48.636;9.798;2023-02-01T06:50:38;1.60;;;1.50;;
2760;SDS011;15420;48.636;9.798;2023-02-01T06:53:06;1.70;;;1.50;;
2760;SDS011;15420;48.636;9.798;2023-02-01T06:55:33;1.80;;;1.70;;
2760;SDS011;15420;48.636;9.798;2023-02-01T06:58:01;1.90;;;1.50;;
2760;SDS011;15420;48.636;9.798;2023-02-01T07:00:30;1.47;;;1.37;;
2760;SDS011;15420;48.636;9.798;2023-02-01T07:02:57;1.70;;;1.57;;
2760;SDS011;15420;48.636;9.798;2023-02-01T07:05:24;1.73;;;1.63;;
2760;SDS011;15420;48.636;9.798;2023-02-01T07:07:50;3.40;;;2.27;;
2760;SDS011;15420;48.636;9.798;2023-02-01T07:10:17;2.20;;;1.70;;
2760;SDS011;15420;48.636;9.798;2023-02-01T07:12:43;4.23;;;2.00;;
2760;SDS011;15420;48.636;9.798;2023-02-01T07:15:09;3.07;;;2.00;;
2760;SDS011;15420;48.636;9.798;2023-02-01T07:17:35;2.10;;;1.60;;
2760;SDS011;15420;48.636;9.798;2023-02-01T07:20:01;1.63;;;1.53;;
2760;SDS011;15420;48.636;9.798;2023-02-01T07:22:28;4.13;;;1.80;;
2760;SDS011;15420;48.636;9.798;2023-02-01T07:24:56;5.73;;;2.80;;
2760;SDS011;15420;48.636;9.798;2023-02-01T07:27:22;2.40;;;2.17;;
2760;SDS011;15420;48.636;9.798;2023-02-01T07:29:50;2.57;;;2.30;;
2760;SDS011;15420;48.636;9.798;2023-02-01T07:32:17;2.20;;;2.00;;
2760;SDS011;15420;48.636;9.798;2023-02-01T07:34:45;2.47;;;2.00;;
2760;SDS011;15420;48.636;9.798;2023-02-01T07:37:14;3.90;;;1.80;;
2760;SDS011;15420;48.636;9.798;2023-02-01T07:39:40;1.90;;;1.73;;
2760;SDS011;15420;48.636;9.798;2023-02-01T07:42:09;2.27;;;2.00;;
2760;SDS011;15420;48.636;9.798;2023-02-01T07:44:37;4.60;;;2.50;;
2760;SDS011;15420;48.636;9.798;2023-02-01T07:47:03;3.70;;;2.40;;
2760;SDS011;15420;48.636;9.798;2023-02-01T07:49:32;2.53;;;1.90;;
2760;SDS011;15420;48.636;9.798;2023-02-01T07:51:58;4.47;;;2.40;;
2760;SDS011;15420;48.636;9.798;2023-02-01T07:54:26;1.93;;;1.70;;
2760;SDS011;15420;48.636;9.798;2023-02-01T07:56:55;2.10;;;1.77;;
2760;SDS011;15420;48.636;9.798;2023-02-01T07:59:21;3.00;;;2.20;;
2760;SDS011;15420;48.636;9.798;2023-02-01T08:01:49;3.30;;;3.00;;
2760;SDS011;15420;48.636;9.798;2023-02-01T08:04:16;2.50;;;1.93;;
2760;SDS011;15420;48.636;9.798;2023-02-01T08:06:44;1.60;;;1.33;;
2760;SDS011;15420;48.636;9.798;2023-02-01T08:09:10;3.80;;;2.50;;
2760;SDS011;15420;48.636;9.798;2023-02-01T08:11:39;3.30;;;2.53;;
2760;SDS011;15420;48.636;9.798;2023-02-01T08:14:08;2.60;;;2.03;;
2760;SDS011;15420;48.636;9.798;2023-02-01T08:16:34;2.90;;;2.07;;
2760;SDS011;15420;48.636;9.798;2023-02-01T08:19:06;2.53;;;2.33;;
2760;SDS011;15420;48.636;9.798;2023-02-01T08:21:32;5.57;;;2.23;;
2760;SDS011;15420;48.636;9.798;2023-02-01T08:24:05;3.37;;;2.53;;
2760;SDS011;15420;48.636;9.798;2023-02-01T08:26:33;2.47;;;2.27;;
2760;SDS011;15420;48.636;9.798;2023-02-01T08:29:00;3.30;;;3.00;;
2760;SDS011;15420;48.636;9.798;2023-02-01T08:31:30;4.57;;;2.97;;
2760;SDS011;15420;48.636;9.798;2023-02-01T08:33:57;2.70;;;2.37;;
2760;SDS011;15420;48.636;9.798;2023-02-01T08:36:26;4.20;;;3.33;;
2760;SDS011;15420;48.636;9.798;2023-02-01T08:38:56;3.33;;;2.20;;
2760;SDS011;15420;48.636;9.798;2023-02-01T08:41:27;3.07;;;2.60;;
2760;SDS011;15420;48.636;9.798;2023-02-01T08:43:57;3.20;;;2.87;;
2760;SDS011;15420;48.636;9.798;2023-02-01T08:46:26;3.73;;;2.57;;
2760;SDS011;15420;48.636;9.798;2023-02-01T08:48:55;2.97;;;2.73;;
2760;SDS011;15420;48.636;9.798;2023-02-01T08:51:21;3.77;;;1.77;;
2760;SDS011;15420;48.636;9.798;2023-02-01T08:53:48;4.10;;;2.30;;
2760;SDS011;15420;48.636;9.798;2023-02-01T08:56:20;6.13;;;2.43;;
2760;SDS011;15420;48.636;9.798;2023-02-01T08:58:48;5.33;;;2.60;;
2760;SDS011;15420;48.636;9.798;2023-02-01T09:01:17;2.50;;;2.33;;
2760;SDS011;15420;48.636;9.798;2023-02-01T09:03:43;3.30;;;2.67;;
2760;SDS011;15420;48.636;9.798;2023-02-01T09:06:11;8.60;;;3.30;;
2760;SDS011;15420;48.636;9.798;2023-02-01T09:08:42;6.50;;;3.70;;
2760;SDS011;15420;48.636;9.798;2023-02-01T09:11:12;7.53;;;3.20;;
2760;SDS011;15420;48.636;9.798;2023-02-01T09:13:40;3.00;;;2.73;;
2760;SDS011;15420;48.636;9.798;2023-02-01T09:16:06;5.83;;;3.63;;
2760;SDS011;15420;48.636;9.798;2023-02-01T09:18:33;5.03;;;3.20;;
2760;SDS011;15420;48.636;9.798;2023-02-01T09:20:59;4.33;;;2.80;;
2760;SDS011;15420;48.636;9.798;2023-02-01T09:23:30;7.93;;;2.60;;
2760;SDS011;15420;48.636;9.798;2023-02-01T09:26:02;3.77;;;2.47;;
2760;SDS011;15420;48.636;9.798;2023-02-01T09:28:36;5.00;;;3.10;;
2760;SDS011;15420;48.636;9.798;2023-02-01T09:31:04;6.70;;;3.00;;
2760;SDS011;15420;48.636;9.798;2023-02-01T09:33:32;3.07;;;2.30;;
2760;SDS011;15420;48.636;9.798;2023-02-01T09:36:02;6.23;;;2.03;;
2760;SDS011;15420;48.636;9.798;2023-02-01T09:38:30;3.30;;;1.97;;
2760;SDS011;15420;48.636;9.798;2023-02-01T09:40:57;5.67;;;3.63;;
2760;SDS011;15420;48.636;9.798;2023-02-01T09:46:38;2.63;;;2.30;;
2760;SDS011;15420;48.636;9.798;2023-02-01T09:49:10;3.10;;;1.90;;
2760;SDS011;15420;48.636;9.798;2023-02-01T09:51:44;5.83;;;3.30;;
2760;SDS011;15420;48.636;9.798;2023-02-01T09:54:17;5.50;;;3.60;;
2760;SDS011;15420;48.636;9.798;2023-02-01T09:57:36;4.10;;;2.67;;
2760;SDS011;15420;48.636;9.798;2023-02-01T09:59:52;2.50;;;2.23;;
2760;SDS011;15420;48.636;9.798;2023-02-01T10:02:28;6.43;;;3.53;;
2760;SDS011;15420;48.636;9.798;2023-02-01T10:04:57;5.03;;;4.03;;
2760;SDS011;15420;48.636;9.798;2023-02-01T10:07:50;7.60;;;3.57;;
2760;SDS011;15420;48.636;9.798;2023-02-01T10:10:26;5.83;;;3.90;;
2760;SDS011;15420;48.636;9.798;2023-02-01T10:18:27;4.97;;;2.50;;
2760;SDS011;15420;48.636;9.798;2023-02-01T10:26:26;6.30;;;2.60;;
2760;SDS011;15420;48.636;9.798;2023-02-01T10:28:59;2.60;;;2.40;;
2760;SDS011;15420;48.636;9.798;2023-02-01T10:31:35;4.97;;;2.90;;
2760;SDS011;15420;48.636;9.798;2023-02-01T10:34:21;6.00;;;3.07;;
2760;SDS011;15420;48.636;9.798;2023-02-01T10:37:17;6.30;;;3.00;;
2760;SDS011;15420;48.636;9.798;2023-02-01T10:39:54;10.37;;;4.10;;
2760;SDS011;15420;48.636;9.798;2023-02-01T10:42:26;12.10;;;4.00;;
2760;SDS011;15420;48.636;9.798;2023-02-01T10:44:57;11.53;;;4.83;;
2760;SDS011;15420;48.636;9.798;2023-02-01T10:47:27;11.50;;;4.40;;
2760;SDS011;15420;48.636;9.798;2023-02-01T10:52:43;4.27;;;3.60;;
2760;SDS011;15420;48.636;9.798;2023-02-01T10:55:25;5.43;;;3.50;;
2760;SDS011;15420;48.636;9.798;2023-02-01T10:57:58;5.57;;;3.60;;
2760;SDS011;15420;48.636;9.798;2023-02-01T11:00:37;5.90;;;4.00;;
2760;SDS011;15420;48.636;9.798;2023-02-01T11:08:51;3.33;;;2.40;;
2760;SDS011;15420;48.636;9.798;2023-02-01T11:11:20;7.93;;;2.73;;
2760;SDS011;15420;48.636;9.798;2023-02-01T11:13:57;3.00;;;1.93;;
2760;SDS011;15420;48.636;9.798;2023-02-01T11:16:38;4.67;;;2.00;;
2760;SDS011;15420;48.636;9.798;2023-02-01T11:19:05;4.23;;;2.90;;
2760;SDS011;15420;48.636;9.798;2023-02-01T11:21:34;5.03;;;2.70;;
2760;SDS011;15420;48.636;9.798;2023-02-01T11:24:02;11.23;;;3.43;;
2760;SDS011;15420;48.636;9.798;2023-02-01T11:26:30;4.10;;;2.67;;
2760;SDS011;15420;48.636;9.798;2023-02-01T11:31:34;2.93;;;1.83;;
2760;SDS011;15420;48.636;9.798;2023-02-01T11:36:45;6.80;;;2.50;;
2760;SDS011;15420;48.636;9.798;2023-02-01T11:41:40;5.50;;;2.63;;
2760;SDS011;15420;48.636;9.798;2023-02-01T11:44:23;6.87;;;2.40;;
2760;SDS011;15420;48.636;9.798;2023-02-01T11:49:57;14.03;;;7.50;;
2760;SDS011;15420;48.636;9.798;2023-02-01T12:16:32;9.73;;;4.50;;
2760;SDS011;15420;48.636;9.798;2023-02-01T12:21:50;9.03;;;4.00;;
2760;SDS011;15420;48.636;9.798;2023-02-01T12:25:05;12.00;;;4.57;;
2760;SDS011;15420;48.636;9.798;2023-02-01T12:27:49;7.93;;;4.23;;
2760;SDS011;15420;48.636;9.798;2023-02-01T12:47:07;25.03;;;11.20;;
2760;SDS011;15420;48.636;9.798;2023-02-01T12:49:55;36.17;;;15.80;;
2760;SDS011;15420;48.636;9.798;2023-02-01T12:53:06;40.10;;;16.37;;
2760;SDS011;15420;48.636;9.798;2023-02-01T12:55:36;58.40;;;17.20;;
2760;SDS011;15420;48.636;9.798;2023-02-01T12:58:15;35.53;;;16.67;;
2760;SDS011;15420;48.636;9.798;2023-02-01T13:00:52;23.60;;;12.20;;
2760;SDS011;15420;48.636;9.798;2023-02-01T13:06:52;17.67;;;8.00;;
2760;SDS011;15420;48.636;9.798;2023-02-01T13:11:44;10.43;;;5.30;;
2760;SDS011;15420;48.636;9.798;2023-02-01T13:17:41;6.00;;;3.97;;
2760;SDS011;15420;48.636;9.798;2023-02-01T13:20:13;6.30;;;3.60;;
2760;SDS011;15420;48.636;9.798;2023-02-01T13:22:48;8.30;;;4.90;;
2760;SDS011;15420;48.636;9.798;2023-02-01T13:28:06;6.43;;;4.10;;
2760;SDS011;15420;48.636;9.798;2023-02-01T13:38:39;5.60;;;3.33;;
2760;SDS011;15420;48.636;9.798;2023-02-01T13:43:54;11.93;;;5.23;;
2760;SDS011;15420;48.636;9.798;2023-02-01T13:46:30;5.83;;;3.73;;
2760;SDS011;15420;48.636;9.798;2023-02-01T13:49:15;3.50;;;2.57;;
2760;SDS011;15420;48.636;9.798;2023-02-01T13:51:51;5.60;;;4.20;;
2760;SDS011;15420;48.636;9.798;2023-02-01T13:54:23;2.30;;;2.00;;
2760;SDS011;15420;48.636;9.798;2023-02-01T13:56:53;3.67;;;1.73;;
2760;SDS011;15420;48.636;9.798;2023-02-01T14:05:10;6.40;;;3.90;;
2760;SDS011;15420;48.636;9.798;2023-02-01T14:23:44;6.30;;;4.00;;
2760;SDS011;15420;48.636;9.798;2023-02-01T14:26:13;4.33;;;2.43;;
2760;SDS011;15420;48.636;9.798;2023-02-01T14:28:50;5.53;;;2.30;;
2760;SDS011;15420;48.636;9.798;2023-02-01T14:34:14;12.47;;;4.40;;
2760;SDS011;15420;48.636;9.798;2023-02-01T14:36:55;13.07;;;6.50;;
2760;SDS011;15420;48.636;9.798;2023-02-01T14:39:35;8.73;;;4.67;;
2760;SDS011;15420;48.636;9.798;2023-02-01T14:42:15;8.87;;;3.70;;
2760;SDS011;15420;48.636;9.798;2023-02-01T14:44:52;6.37;;;2.80;;
2760;SDS011;15420;48.636;9.798;2023-02-01T14:47:40;6.10;;;2.43;;
2760;SDS011;15420;48.636;9.798;2023-02-01T14:52:49;7.20;;;2.10;;
2760;SDS011;15420;48.636;9.798;2023-02-01T15:00:56;5.40;;;2.87;;
2760;SDS011;15420;48.636;9.798;2023-02-01T15:06:26;4.40;;;2.57;;
2760;SDS011;15420;48.636;9.798;2023-02-01T15:14:44;6.00;;;2.90;;
2760;SDS011;15420;48.636;9.798;2023-02-01T15:22:22;6.40;;;2.50;;
2760;SDS011;15420;48.636;9.798;2023-02-01T15:24:55;7.33;;;2.73;;
2760;SDS011;15420;48.636;9.798;2023-02-01T15:27:25;2.70;;;2.40;;
2760;SDS011;15420;48.636;9.798;2023-02-01T15:29:52;4.53;;;2.57;;
2760;SDS011;15420;48.636;9.798;2023-02-01T15:41:01;4.07;;;2.40;;
2760;SDS011;15420;48.636;9.798;2023-02-01T15:43:44;7.67;;;2.57;;
2760;SDS011;15420;48.636;9.798;2023-02-01T15:46:24;5.00;;;2.50;;
2760;SDS011;15420;48.636;9.798;2023-02-01T15:48:57;4.43;;;2.70;;
2760;SDS011;15420;48.636;9.798;2023-02-01T15:51:25;6.87;;;2.13;;
2760;SDS011;15420;48.636;9.798;2023-02-01T15:53:58;7.57;;;2.97;;
2760;SDS011;15420;48.636;9.798;2023-02-01T15:56:28;8.47;;;3.37;;
2760;SDS011;15420;48.636;9.798;2023-02-01T15:59:01;5.40;;;2.60;;
2760;SDS011;15420;48.636;9.798;2023-02-01T16:01:34;7.27;;;3.50;;
2760;SDS011;15420;48.636;9.798;2023-02-01T16:09:23;9.47;;;3.77;;
2760;SDS011;15420;48.636;9.798;2023-02-01T16:12:02;8.53;;;4.00;;
2760;SDS011;15420;48.636;9.798;2023-02-01T16:14:48;14.30;;;6.20;;
2760;SDS011;15420;48.636;9.798;2023-02-01T16:17:14;15.93;;;5.80;;
2760;SDS011;15420;48.636;9.798;2023-02-01T16:19:45;11.43;;;5.50;;
2760;SDS011;15420;48.636;9.798;2023-02-01T16:22:14;13.67;;;5.87;;
2760;SDS011;15420;48.636;9.798;2023-02-01T16:24:41;12.90;;;5.80;;
2760;SDS011;15420;48.636;9.798;2023-02-01T16:27:11;7.30;;;4.03;;
2760;SDS011;15420;48.636;9.798;2023-02-01T16:29:38;6.70;;;3.40;;
2760;SDS011;15420;48.636;9.798;2023-02-01T16:32:04;4.80;;;2.80;;
2760;SDS011;15420;48.636;9.798;2023-02-01T16:34:40;4.80;;;3.17;;
2760;SDS011;15420;48.636;9.798;2023-02-01T16:37:09;6.90;;;2.70;;
2760;SDS011;15420;48.636;9.798;2023-02-01T16:39:37;6.93;;;3.17;;
2760;SDS011;15420;48.636;9.798;2023-02-01T16:42:11;5.13;;;3.70;;
2760;SDS011;15420;48.636;9.798;2023-02-01T16:44:41;7.20;;;4.07;;
2760;SDS011;15420;48.636;9.798;2023-02-01T16:47:17;5.97;;;3.30;;
2760;SDS011;15420;48.636;9.798;2023-02-01T16:49:45;4.87;;;3.27;;
2760;SDS011;15420;48.636;9.798;2023-02-01T16:52:15;7.10;;;2.57;;
2760;SDS011;15420;48.636;9.798;2023-02-01T16:54:47;6.13;;;2.20;;
2760;SDS011;15420;48.636;9.798;2023-02-01T16:57:17;4.73;;;2.40;;
2760;SDS011;15420;48.636;9.798;2023-02-01T16:59:47;4.73;;;2.50;;
2760;SDS011;15420;48.636;9.798;2023-02-01T17:02:18;8.00;;;3.23;;
2760;SDS011;15420;48.636;9.798;2023-02-01T17:04:48;7.67;;;2.83;;
2760;SDS011;15420;48.636;9.798;2023-02-01T17:07:15;6.17;;;2.63;;
2760;SDS011;15420;48.636;9.798;2023-02-01T17:09:46;11.23;;;3.07;;
2760;SDS011;15420;48.636;9.798;2023-02-01T17:12:23;7.60;;;2.90;;
2760;SDS011;15420;48.636;9.798;2023-02-01T17:14:51;5.30;;;2.90;;
2760;SDS011;15420;48.636;9.798;2023-02-01T17:17:20;3.93;;;2.80;;
2760;SDS011;15420;48.636;9.798;2023-02-01T17:19:50;6.40;;;2.43;;
2760;SDS011;15420;48.636;9.798;2023-02-01T17:22:21;9.40;;;2.90;;
2760;SDS011;15420;48.636;9.798;2023-02-01T17:24:50;9.20;;;4.03;;
2760;SDS011;15420;48.636;9.798;2023-02-01T17:27:16;5.43;;;2.80;;
2760;SDS011;15420;48.636;9.798;2023-02-01T17:29:43;4.13;;;2.17;;
2760;SDS011;15420;48.636;9.798;2023-02-01T17:32:21;5.97;;;3.03;;
2760;SDS011;15420;48.636;9.798;2023-02-01T17:34:49;4.60;;;2.53;;
2760;SDS011;15420;48.636;9.798;2023-02-01T17:37:24;9.23;;;3.67;;
2760;SDS011;15420;48.636;9.798;2023-02-01T17:39:52;7.50;;;2.67;;
2760;SDS011;15420;48.636;9.798;2023-02-01T17:42:21;9.83;;;3.37;;
2760;SDS011;15420;48.636;9.798;2023-02-01T17:44:49;7.03;;;2.97;;
2760;SDS011;15420;48.636;9.798;2023-02-01T17:47:19;9.20;;;2.60;;
2760;SDS011;15420;48.636;9.798;2023-02-01T17:49:48;6.10;;;3.17;;
2760;SDS011;15420;48.636;9.798;2023-02-01T17:52:20;4.53;;;2.63;;
2760;SDS011;15420;48.636;9.798;2023-02-01T17:54:48;6.80;;;3.60;;
2760;SDS011;15420;48.636;9.798;2023-02-01T17:57:17;5.97;;;3.33;;
2760;SDS011;15420;48.636;9.798;2023-02-01T17:59:46;5.23;;;2.80;;
2760;SDS011;15420;48.636;9.798;2023-02-01T18:02:21;2.90;;;2.20;;
2760;SDS011;15420;48.636;9.798;2023-02-01T18:04:49;4.50;;;2.53;;
2760;SDS011;15420;48.636;9.798;2023-02-01T18:07:18;4.63;;;3.10;;
2760;SDS011;15420;48.636;9.798;2023-02-01T18:09:44;4.10;;;2.67;;
2760;SDS011;15420;48.636;9.798;2023-02-01T18:12:28;2.50;;;2.10;;
2760;SDS011;15420;48.636;9.798;2023-02-01T18:15:08;8.10;;;3.53;;
2760;SDS011;15420;48.636;9.798;2023-02-01T18:17:48;7.77;;;4.03;;
2760;SDS011;15420;48.636;9.798;2023-02-01T18:20:17;8.17;;;4.33;;
2760;SDS011;15420;48.636;9.798;2023-02-01T18:22:45;11.47;;;3.40;;
2760;SDS011;15420;48.636;9.798;2023-02-01T18:27:44;4.93;;;2.50;;
2760;SDS011;15420;48.636;9.798;2023-02-01T18:30:14;14.23;;;3.67;;
2760;SDS011;15420;48.636;9.798;2023-02-01T18:32:43;7.30;;;3.80;;
2760;SDS011;15420;48.636;9.798;2023-02-01T18:35:15;17.30;;;7.90;;
2760;SDS011;15420;48.636;9.798;2023-02-01T18:37:43;8.27;;;4.10;;
2760;SDS011;15420;48.636;9.798;2023-02-01T18:40:16;5.00;;;3.03;;
2760;SDS011;15420;48.636;9.798;2023-02-01T18:42:44;11.13;;;3.60;;
2760;SDS011;15420;48.636;9.798;2023-02-01T18:45:30;7.17;;;3.20;;
2760;SDS011;15420;48.636;9.798;2023-02-01T18:48:02;5.33;;;3.03;;
2760;SDS011;15420;48.636;9.798;2023-02-01T18:50:32;4.20;;;2.27;;